DUZEAR1 KMYR-KCHS
Flight info
| Callsign | DUZEAR1 |
|---|---|
| Flight time | 0h 23m |
| Altitude | 8500 |
| Route | KMYR/18 N0254F085 DCT SOMVE DCT PLANN V1 CUBBY DCT SNOBB DCT KCHS/33 |
| Aircraft | PC12/L-SDE2FGIRWY/SB1 |
Departure
| Time | 2026-04-17 21:01 |
|---|---|
| Airport | Myrtle Beach International Airport (KMYR) |
Arrival
| Time | 2026-04-17 21:24 |
|---|---|
| Airport | Charleston International Airport (KCHS) |
| Time | Latitude | Longitude | Altitude | Speed | Heading |
|---|---|---|---|---|---|
| 2026-04-17 20:47 | 33.67389 | -78.93314 | 28 ft | 0 kts | 349° |
| 2026-04-17 20:56 | 33.67402 | -78.93316 | 28 ft | 8 kts | 354° |
| 2026-04-17 20:56 | 33.67428 | -78.93256 | 28 ft | 14 kts | 79° |
| 2026-04-17 20:56 | 33.67443 | -78.93163 | 28 ft | 0 kts | 78° |
| 2026-04-17 20:57 | 33.67449 | -78.93133 | 28 ft | 6 kts | 78° |
| 2026-04-17 20:57 | 33.67460 | -78.93089 | 28 ft | 12 kts | 53° |
| 2026-04-17 20:57 | 33.67526 | -78.93086 | 28 ft | 0 kts | 349° |
| 2026-04-17 20:58 | 33.67571 | -78.93097 | 28 ft | 17 kts | 348° |
| 2026-04-17 20:58 | 33.67735 | -78.93138 | 28 ft | 27 kts | 348° |
| 2026-04-17 20:58 | 33.67888 | -78.93176 | 28 ft | 22 kts | 347° |
| 2026-04-17 20:58 | 33.68004 | -78.93168 | 28 ft | 23 kts | 65° |
| 2026-04-17 20:59 | 33.68059 | -78.93004 | 28 ft | 15 kts | 68° |
| 2026-04-17 20:59 | 33.68077 | -78.92949 | 28 ft | 0 kts | 66° |
| 2026-04-17 21:00 | 33.68080 | -78.92942 | 28 ft | 6 kts | 68° |
| 2026-04-17 21:00 | 33.68067 | -78.92855 | 29 ft | 18 kts | 166° |
| 2026-04-17 21:00 | 33.67779 | -78.92783 | 28 ft | 76 kts | 168° |
| 2026-04-17 21:01 | 33.67119 | -78.92617 | 205 ft | 111 kts | 168° |
| 2026-04-17 21:01 | 33.66293 | -78.92400 | 696 ft | 130 kts | 168° |
| 2026-04-17 21:01 | 33.65319 | -78.92124 | 1120 ft | 161 kts | 171° |
| 2026-04-17 21:01 | 33.64196 | -78.92338 | 1560 ft | 177 kts | 209° |
| 2026-04-17 21:02 | 33.63255 | -78.93397 | 1815 ft | 188 kts | 238° |
| 2026-04-17 21:02 | 33.62708 | -78.94699 | 2815 ft | 162 kts | 245° |
| 2026-04-17 21:02 | 33.62223 | -78.95800 | 3982 ft | 140 kts | 243° |
| 2026-04-17 21:02 | 33.61748 | -78.96828 | 4845 ft | 144 kts | 243° |
| 2026-04-17 21:03 | 33.61256 | -78.97882 | 5725 ft | 145 kts | 242° |
| 2026-04-17 21:03 | 33.60758 | -78.98948 | 6632 ft | 147 kts | 243° |
| 2026-04-17 21:03 | 33.60253 | -79.00025 | 7523 ft | 149 kts | 243° |
| 2026-04-17 21:03 | 33.59729 | -79.01146 | 8211 ft | 161 kts | 242° |
| 2026-04-17 21:04 | 33.59154 | -79.02371 | 8496 ft | 182 kts | 242° |
| 2026-04-17 21:04 | 33.58461 | -79.03853 | 8512 ft | 221 kts | 242° |
| 2026-04-17 21:04 | 33.57669 | -79.05533 | 8510 ft | 239 kts | 242° |
| 2026-04-17 21:04 | 33.56839 | -79.07296 | 8491 ft | 245 kts | 242° |
| 2026-04-17 21:05 | 33.55990 | -79.09081 | 8490 ft | 247 kts | 240° |
| 2026-04-17 21:05 | 33.54943 | -79.10711 | 8492 ft | 247 kts | 231° |
| 2026-04-17 21:05 | 33.53835 | -79.12289 | 8491 ft | 248 kts | 231° |
| 2026-04-17 21:05 | 33.52733 | -79.13882 | 8491 ft | 248 kts | 231° |
| 2026-04-17 21:06 | 33.51623 | -79.15478 | 8485 ft | 249 kts | 231° |
| 2026-04-17 21:06 | 33.50515 | -79.17072 | 8485 ft | 248 kts | 231° |
| 2026-04-17 21:06 | 33.49409 | -79.18661 | 8487 ft | 248 kts | 231° |
| 2026-04-17 21:06 | 33.48302 | -79.20247 | 8484 ft | 248 kts | 231° |
| 2026-04-17 21:07 | 33.47195 | -79.21837 | 8483 ft | 248 kts | 231° |
| 2026-04-17 21:07 | 33.46091 | -79.23422 | 8486 ft | 248 kts | 231° |
| 2026-04-17 21:07 | 33.44984 | -79.25007 | 8488 ft | 248 kts | 231° |
| 2026-04-17 21:07 | 33.43880 | -79.26589 | 8486 ft | 248 kts | 231° |
| 2026-04-17 21:08 | 33.42771 | -79.28180 | 8483 ft | 248 kts | 231° |
| 2026-04-17 21:08 | 33.41662 | -79.29766 | 8482 ft | 248 kts | 231° |
| 2026-04-17 21:08 | 33.40553 | -79.31352 | 8483 ft | 249 kts | 231° |
| 2026-04-17 21:08 | 33.39442 | -79.32943 | 8484 ft | 249 kts | 231° |
| 2026-04-17 21:09 | 33.38333 | -79.34530 | 8483 ft | 249 kts | 231° |
| 2026-04-17 21:09 | 33.37225 | -79.36114 | 8483 ft | 248 kts | 231° |
| 2026-04-17 21:09 | 33.36116 | -79.37698 | 8486 ft | 248 kts | 231° |
| 2026-04-17 21:09 | 33.35006 | -79.39284 | 8490 ft | 249 kts | 232° |
| 2026-04-17 21:10 | 33.33892 | -79.40875 | 8485 ft | 249 kts | 232° |
| 2026-04-17 21:10 | 33.32780 | -79.42466 | 8486 ft | 249 kts | 232° |
| 2026-04-17 21:10 | 33.31666 | -79.44052 | 8486 ft | 249 kts | 232° |
| 2026-04-17 21:10 | 33.30554 | -79.45636 | 8485 ft | 249 kts | 232° |
| 2026-04-17 21:11 | 33.29440 | -79.47226 | 8483 ft | 249 kts | 232° |
| 2026-04-17 21:11 | 33.28323 | -79.48815 | 8494 ft | 250 kts | 232° |
| 2026-04-17 21:11 | 33.27209 | -79.50403 | 8498 ft | 250 kts | 232° |
| 2026-04-17 21:11 | 33.26093 | -79.51991 | 8494 ft | 249 kts | 232° |
| 2026-04-17 21:12 | 33.24975 | -79.53580 | 8496 ft | 249 kts | 232° |
| 2026-04-17 21:12 | 33.23877 | -79.55142 | 8498 ft | 249 kts | 232° |
| 2026-04-17 21:12 | 33.22745 | -79.56749 | 8500 ft | 249 kts | 232° |
| 2026-04-17 21:12 | 33.21627 | -79.58338 | 8497 ft | 250 kts | 232° |
| 2026-04-17 21:13 | 33.20514 | -79.59922 | 8496 ft | 249 kts | 232° |
| 2026-04-17 21:13 | 33.19395 | -79.61507 | 8500 ft | 250 kts | 232° |
| 2026-04-17 21:13 | 33.18293 | -79.63070 | 8500 ft | 250 kts | 232° |
| 2026-04-17 21:13 | 33.17174 | -79.64658 | 8497 ft | 250 kts | 232° |
| 2026-04-17 21:14 | 33.16092 | -79.66191 | 8496 ft | 250 kts | 232° |
| 2026-04-17 21:14 | 33.14869 | -79.67653 | 8491 ft | 251 kts | 219° |
| 2026-04-17 21:14 | 33.13474 | -79.68834 | 8469 ft | 242 kts | 218° |
| 2026-04-17 21:15 | 33.12239 | -79.69901 | 8288 ft | 245 kts | 218° |
| 2026-04-17 21:15 | 33.10880 | -79.71082 | 7993 ft | 240 kts | 218° |
| 2026-04-17 21:15 | 33.09528 | -79.72250 | 7678 ft | 240 kts | 218° |
| 2026-04-17 21:15 | 33.08175 | -79.73415 | 7363 ft | 239 kts | 218° |
| 2026-04-17 21:16 | 33.06830 | -79.74573 | 7046 ft | 238 kts | 218° |
| 2026-04-17 21:16 | 33.05501 | -79.75717 | 6732 ft | 234 kts | 218° |
| 2026-04-17 21:16 | 33.04185 | -79.76849 | 6421 ft | 233 kts | 218° |
| 2026-04-17 21:16 | 33.02883 | -79.77970 | 6114 ft | 230 kts | 218° |
| 2026-04-17 21:17 | 33.01565 | -79.79105 | 5806 ft | 233 kts | 218° |
| 2026-04-17 21:17 | 33.00274 | -79.80214 | 5501 ft | 229 kts | 218° |
| 2026-04-17 21:17 | 32.98973 | -79.81332 | 5195 ft | 229 kts | 217° |
| 2026-04-17 21:17 | 32.97695 | -79.82429 | 4889 ft | 225 kts | 217° |
| 2026-04-17 21:18 | 32.96430 | -79.83516 | 4588 ft | 223 kts | 217° |
| 2026-04-17 21:18 | 32.95178 | -79.84591 | 4297 ft | 224 kts | 217° |
| 2026-04-17 21:18 | 32.93913 | -79.85676 | 3997 ft | 222 kts | 217° |
| 2026-04-17 21:18 | 32.92664 | -79.86748 | 3700 ft | 219 kts | 217° |
| 2026-04-17 21:19 | 32.91427 | -79.87811 | 3414 ft | 219 kts | 217° |
| 2026-04-17 21:19 | 32.90204 | -79.88857 | 3120 ft | 217 kts | 217° |
| 2026-04-17 21:19 | 32.88947 | -79.89852 | 2858 ft | 215 kts | 212° |
| 2026-04-17 21:19 | 32.87774 | -79.90670 | 2637 ft | 178 kts | 212° |
| 2026-04-17 21:20 | 32.86800 | -79.91361 | 2465 ft | 162 kts | 212° |
| 2026-04-17 21:20 | 32.85881 | -79.92015 | 2306 ft | 156 kts | 213° |
| 2026-04-17 21:20 | 32.84986 | -79.92667 | 2135 ft | 151 kts | 216° |
| 2026-04-17 21:20 | 32.84238 | -79.93528 | 1986 ft | 150 kts | 232° |
| 2026-04-17 21:21 | 32.83793 | -79.94381 | 1845 ft | 145 kts | 244° |
| 2026-04-17 21:21 | 32.83491 | -79.95476 | 1710 ft | 145 kts | 257° |
| 2026-04-17 21:21 | 32.83429 | -79.96594 | 1542 ft | 121 kts | 270° |
| 2026-04-17 21:21 | 32.83538 | -79.97440 | 1419 ft | 95 kts | 278° |
| 2026-04-17 21:22 | 32.83764 | -79.98237 | 1332 ft | 106 kts | 289° |
| 2026-04-17 21:22 | 32.84136 | -79.99002 | 1222 ft | 109 kts | 300° |
| 2026-04-17 21:22 | 32.84642 | -79.99682 | 1102 ft | 108 kts | 311° |
| 2026-04-17 21:22 | 32.85241 | -80.00229 | 983 ft | 109 kts | 322° |
| 2026-04-17 21:23 | 32.85669 | -80.00542 | 884 ft | 109 kts | 322° |
| 2026-04-17 21:23 | 32.86289 | -80.01014 | 747 ft | 105 kts | 321° |
| 2026-04-17 21:23 | 32.86876 | -80.01476 | 603 ft | 102 kts | 321° |
| 2026-04-17 21:23 | 32.87491 | -80.01939 | 491 ft | 105 kts | 324° |
| 2026-04-17 21:24 | 32.88120 | -80.02412 | 324 ft | 107 kts | 324° |
| 2026-04-17 21:24 | 32.88740 | -80.02875 | 183 ft | 103 kts | 327° |
| 2026-04-17 21:24 | 32.89327 | -80.03317 | 48 ft | 94 kts | 328° |
| 2026-04-17 21:24 | 32.89760 | -80.03644 | 35 ft | 29 kts | 327° |
| 2026-04-17 21:25 | 32.89782 | -80.03645 | 36 ft | 7 kts | 128° |
| 2026-04-17 21:25 | 32.89851 | -80.03574 | 37 ft | 16 kts | 1° |
| 2026-04-17 21:25 | 32.89892 | -80.03536 | 37 ft | 13 kts | 146° |
| 2026-04-17 21:25 | 32.89844 | -80.03499 | 37 ft | 8 kts | 139° |
| 2026-04-17 21:26 | 32.89835 | -80.03475 | 37 ft | 0 kts | 74° |
| 2026-04-17 21:26 | 32.89854 | -80.03435 | 37 ft | 0 kts | 58° |
| 2026-04-17 21:27 | 32.89859 | -80.03427 | 37 ft | 7 kts | 56° |
| 2026-04-17 21:27 | 32.89890 | -80.03368 | 37 ft | 11 kts | 58° |
| 2026-04-17 21:27 | 32.89920 | -80.03313 | 37 ft | 5 kts | 58° |
| 2026-04-17 21:27 | 32.89908 | -80.03294 | 37 ft | 0 kts | 149° |
| 2026-04-17 21:28 | 32.89906 | -80.03293 | 37 ft | 0 kts | 149° |
| 2026-04-17 21:28 | 32.89905 | -80.03292 | 37 ft | 0 kts | 149° |